Aeroporto :
LOGIN :

Iscrizione | Disclaimer

   EN    FR    IT 

 










Sommario :    VFR   VFR Marginale   IFR   IFR Intensivo   IFR Molto Intensivo
Visibilità : 
Base nubi : 
>= 8 km
>= 3000ft
5 / 8 km
1000 / 3000 ft
1500m / 5 km
500 / 1000 ft
800 / 1500m
200 / 500 ft
< 800m
< 200 ft
Simboli :   Temporali  Nebbia  Neve Forte  Precipitazioni Forti  Vento > 20 kt
SIGMETs :   Varie  Temporali  Ghiacco  Turbolenza  Onda orograficha  Ceneri Vulcaniche






- Altitudine del aeroporto : 1234 ft
- Codice IATA : LUX


ELLX - Luxembourg Findel

ULTIMO METAR :
  • 292350Z VRB02KT 9000 -RA SCT008 BKN018 13/12 Q1007 RERA NOSIG

METARs OBSOLETI :
  • 292320Z 25003KT 220V280 6000 RA FEW005 BKN060 13/12 Q1007 NOSIG
  • 292250Z 22008KT 6000 +RA SCT002 BKN004 13/12 Q1008 TEMPO RA
  • 292220Z 20009KT 6000 +RA BKN003 13/12 Q1008 TEMPO RA
  • 292150Z 19008KT 140V220 2500 RA BR SCT002 BKN003 13/12 Q1008 TEMPO +RA
  • 292120Z 18007KT 9000 -RA SCT003 BKN004 13/12 Q1009 TEMPO FM2215 +RA
  • 292050Z 19007KT 150V220 3000 RA BR SCT002 BKN003 13/12 Q1009 TEMPO FM2215 +RA
  • 292020Z 19008KT 2500 RA BR SCT002 BKN003 13/12 Q1009 TEMPO 22015G25KT 3500
  • 291950Z 19008KT 3500 -RA BR SCT002 BKN003 13/12 Q1010 TEMPO 22015G25KT 3500
  • 291920Z 20008KT 3000 RA BR SCT003 BKN004 13/12 Q1010 TEMPO 22015G25KT 3500

TAF TAF ELLX
Valido dal 30 a 00 ore il 31 a 06 ore UTC


292300Z 3000/3106 27012KT 9999 SCT012 BKN020
TEMPO 3000/3002 4000 RA BKN006
TEMPO 3010/3020 29015G25KT SHRA SCT012TCU BKN015
TEMPO 3102/3106 BKN008
ATIS : +352 4798 27300
Met : +352 4798 27010 / 27050



MetMap, La meteo Aeronautica in un colpo d'occhio ! - Copyright ORBIFLY Dicembre 2007 - Disclaimer

ORBIFLY MET'MAP TEAM :

Programmazione e sviluppo : Alexandra Zaïnal
Concezione : Baudouin d'Aumeries
Supporto tecnico e logistico : Manuel Goepfert
Aiuto : Marc-Olivier Méhu
Aiuto per la traduzione : Arnaldo La Scala




FONTI E CREDITI :

   NOAA